sensor_id;sensor_type;location;lat;lon;timestamp;P1;durP1;ratioP1;P2;durP2;ratioP2
14516;SDS011;7344;50.864;4.362;2022-12-07T00:00:30;20.77;;;15.47;;
14516;SDS011;7344;50.864;4.362;2022-12-07T00:02:56;21.17;;;14.57;;
14516;SDS011;7344;50.864;4.362;2022-12-07T00:05:21;20.60;;;14.63;;
14516;SDS011;7344;50.864;4.362;2022-12-07T00:07:47;20.57;;;14.90;;
14516;SDS011;7344;50.864;4.362;2022-12-07T00:10:14;20.33;;;14.77;;
14516;SDS011;7344;50.864;4.362;2022-12-07T00:12:39;23.33;;;16.33;;
14516;SDS011;7344;50.864;4.362;2022-12-07T00:15:05;17.87;;;15.07;;
14516;SDS011;7344;50.864;4.362;2022-12-07T00:17:31;22.97;;;15.57;;
14516;SDS011;7344;50.864;4.362;2022-12-07T00:19:58;19.73;;;15.33;;
14516;SDS011;7344;50.864;4.362;2022-12-07T00:22:24;20.53;;;16.67;;
14516;SDS011;7344;50.864;4.362;2022-12-07T00:24:49;21.37;;;16.20;;
14516;SDS011;7344;50.864;4.362;2022-12-07T00:27:15;20.93;;;16.27;;
14516;SDS011;7344;50.864;4.362;2022-12-07T00:29:40;24.90;;;17.83;;
14516;SDS011;7344;50.864;4.362;2022-12-07T00:32:06;22.53;;;17.33;;
14516;SDS011;7344;50.864;4.362;2022-12-07T00:34:32;23.27;;;18.03;;
14516;SDS011;7344;50.864;4.362;2022-12-07T00:36:57;30.27;;;17.97;;
14516;SDS011;7344;50.864;4.362;2022-12-07T00:39:23;24.37;;;17.70;;
14516;SDS011;7344;50.864;4.362;2022-12-07T00:41:48;25.17;;;17.73;;
14516;SDS011;7344;50.864;4.362;2022-12-07T00:44:14;26.57;;;18.90;;
14516;SDS011;7344;50.864;4.362;2022-12-07T00:46:40;25.97;;;18.87;;
14516;SDS011;7344;50.864;4.362;2022-12-07T00:49:05;24.57;;;18.87;;
14516;SDS011;7344;50.864;4.362;2022-12-07T00:51:31;26.70;;;18.77;;
14516;SDS011;7344;50.864;4.362;2022-12-07T00:53:57;28.47;;;19.27;;
14516;SDS011;7344;50.864;4.362;2022-12-07T00:56:24;25.30;;;18.00;;
14516;SDS011;7344;50.864;4.362;2022-12-07T00:58:52;25.20;;;18.83;;
14516;SDS011;7344;50.864;4.362;2022-12-07T01:01:22;26.27;;;18.90;;
14516;SDS011;7344;50.864;4.362;2022-12-07T01:03:49;24.50;;;18.80;;
14516;SDS011;7344;50.864;4.362;2022-12-07T01:06:15;25.17;;;19.33;;
14516;SDS011;7344;50.864;4.362;2022-12-07T01:08:42;25.67;;;18.37;;
14516;SDS011;7344;50.864;4.362;2022-12-07T01:11:09;26.67;;;20.30;;
14516;SDS011;7344;50.864;4.362;2022-12-07T01:13:38;34.30;;;21.27;;
14516;SDS011;7344;50.864;4.362;2022-12-07T01:16:05;27.07;;;19.93;;
14516;SDS011;7344;50.864;4.362;2022-12-07T01:18:32;30.40;;;21.20;;
14516;SDS011;7344;50.864;4.362;2022-12-07T01:23:32;31.20;;;19.90;;
14516;SDS011;7344;50.864;4.362;2022-12-07T01:26:00;31.37;;;20.20;;
14516;SDS011;7344;50.864;4.362;2022-12-07T01:28:27;28.73;;;19.50;;
14516;SDS011;7344;50.864;4.362;2022-12-07T01:33:26;27.33;;;19.50;;
14516;SDS011;7344;50.864;4.362;2022-12-07T01:35:53;24.83;;;18.83;;
14516;SDS011;7344;50.864;4.362;2022-12-07T01:38:20;28.53;;;20.80;;
14516;SDS011;7344;50.864;4.362;2022-12-07T01:40:45;26.17;;;19.60;;
14516;SDS011;7344;50.864;4.362;2022-12-07T01:43:18;25.70;;;19.27;;
14516;SDS011;7344;50.864;4.362;2022-12-07T01:45:45;24.43;;;18.73;;
14516;SDS011;7344;50.864;4.362;2022-12-07T01:48:11;25.57;;;19.43;;
14516;SDS011;7344;50.864;4.362;2022-12-07T01:50:40;25.07;;;18.87;;
14516;SDS011;7344;50.864;4.362;2022-12-07T01:53:08;25.13;;;19.27;;
14516;SDS011;7344;50.864;4.362;2022-12-07T01:55:35;22.90;;;18.20;;
14516;SDS011;7344;50.864;4.362;2022-12-07T01:58:05;25.37;;;18.97;;
14516;SDS011;7344;50.864;4.362;2022-12-07T02:00:31;25.87;;;19.23;;
14516;SDS011;7344;50.864;4.362;2022-12-07T02:05:52;24.93;;;17.50;;
14516;SDS011;7344;50.864;4.362;2022-12-07T02:08:19;27.23;;;18.93;;
14516;SDS011;7344;50.864;4.362;2022-12-07T02:10:45;28.47;;;18.03;;
14516;SDS011;7344;50.864;4.362;2022-12-07T02:13:15;26.33;;;18.47;;
14516;SDS011;7344;50.864;4.362;2022-12-07T02:21:25;24.27;;;17.37;;
14516;SDS011;7344;50.864;4.362;2022-12-07T02:29:45;22.40;;;17.87;;
14516;SDS011;7344;50.864;4.362;2022-12-07T02:32:34;21.73;;;17.40;;
14516;SDS011;7344;50.864;4.362;2022-12-07T02:35:07;24.03;;;17.77;;
14516;SDS011;7344;50.864;4.362;2022-12-07T02:38:00;26.80;;;17.97;;
14516;SDS011;7344;50.864;4.362;2022-12-07T02:40:36;22.50;;;17.33;;
14516;SDS011;7344;50.864;4.362;2022-12-07T02:43:08;22.40;;;17.73;;
14516;SDS011;7344;50.864;4.362;2022-12-07T02:45:40;26.60;;;17.43;;
14516;SDS011;7344;50.864;4.362;2022-12-07T02:48:08;24.33;;;18.03;;
14516;SDS011;7344;50.864;4.362;2022-12-07T02:50:36;21.50;;;17.03;;
14516;SDS011;7344;50.864;4.362;2022-12-07T02:53:02;23.77;;;17.50;;
14516;SDS011;7344;50.864;4.362;2022-12-07T02:55:29;25.37;;;17.03;;
14516;SDS011;7344;50.864;4.362;2022-12-07T03:00:35;25.40;;;17.70;;
14516;SDS011;7344;50.864;4.362;2022-12-07T03:03:19;24.03;;;17.77;;
14516;SDS011;7344;50.864;4.362;2022-12-07T03:05:50;23.17;;;17.70;;
14516;SDS011;7344;50.864;4.362;2022-12-07T03:11:48;26.10;;;17.53;;
14516;SDS011;7344;50.864;4.362;2022-12-07T03:14:02;26.20;;;17.67;;
14516;SDS011;7344;50.864;4.362;2022-12-07T03:16:43;24.47;;;17.80;;
14516;SDS011;7344;50.864;4.362;2022-12-07T03:19:17;22.60;;;17.90;;
14516;SDS011;7344;50.864;4.362;2022-12-07T03:21:47;26.87;;;17.93;;
14516;SDS011;7344;50.864;4.362;2022-12-07T03:24:19;25.47;;;18.00;;
14516;SDS011;7344;50.864;4.362;2022-12-07T03:26:51;26.93;;;18.27;;
14516;SDS011;7344;50.864;4.362;2022-12-07T03:29:28;26.60;;;18.50;;
14516;SDS011;7344;50.864;4.362;2022-12-07T03:32:10;25.77;;;18.90;;
14516;SDS011;7344;50.864;4.362;2022-12-07T03:34:49;28.73;;;18.60;;
14516;SDS011;7344;50.864;4.362;2022-12-07T03:38:00;25.67;;;17.90;;
14516;SDS011;7344;50.864;4.362;2022-12-07T03:40:15;28.13;;;18.57;;
14516;SDS011;7344;50.864;4.362;2022-12-07T03:42:42;23.63;;;17.73;;
14516;SDS011;7344;50.864;4.362;2022-12-07T03:45:08;22.60;;;17.40;;
14516;SDS011;7344;50.864;4.362;2022-12-07T03:50:25;24.20;;;17.67;;
14516;SDS011;7344;50.864;4.362;2022-12-07T03:53:02;20.70;;;17.60;;
14516;SDS011;7344;50.864;4.362;2022-12-07T03:55:34;22.73;;;17.43;;
14516;SDS011;7344;50.864;4.362;2022-12-07T03:58:05;22.97;;;16.80;;
14516;SDS011;7344;50.864;4.362;2022-12-07T04:00:34;23.97;;;17.70;;
14516;SDS011;7344;50.864;4.362;2022-12-07T04:03:00;21.47;;;17.63;;
14516;SDS011;7344;50.864;4.362;2022-12-07T04:05:26;24.63;;;17.40;;
14516;SDS011;7344;50.864;4.362;2022-12-07T04:07:52;21.60;;;16.47;;
14516;SDS011;7344;50.864;4.362;2022-12-07T04:10:18;26.00;;;16.77;;
14516;SDS011;7344;50.864;4.362;2022-12-07T04:12:44;25.90;;;17.47;;
14516;SDS011;7344;50.864;4.362;2022-12-07T04:15:10;23.27;;;17.73;;
14516;SDS011;7344;50.864;4.362;2022-12-07T04:17:36;26.27;;;17.77;;
14516;SDS011;7344;50.864;4.362;2022-12-07T04:20:02;24.90;;;18.40;;
14516;SDS011;7344;50.864;4.362;2022-12-07T04:22:29;26.17;;;17.80;;
14516;SDS011;7344;50.864;4.362;2022-12-07T04:24:54;27.30;;;18.27;;
14516;SDS011;7344;50.864;4.362;2022-12-07T04:27:20;26.50;;;19.03;;
14516;SDS011;7344;50.864;4.362;2022-12-07T04:29:46;26.50;;;19.33;;
14516;SDS011;7344;50.864;4.362;2022-12-07T04:32:11;22.90;;;18.57;;
14516;SDS011;7344;50.864;4.362;2022-12-07T04:34:38;28.40;;;19.90;;
14516;SDS011;7344;50.864;4.362;2022-12-07T04:37:03;25.63;;;19.63;;
14516;SDS011;7344;50.864;4.362;2022-12-07T04:39:31;28.80;;;19.60;;
14516;SDS011;7344;50.864;4.362;2022-12-07T04:41:57;26.47;;;19.93;;
14516;SDS011;7344;50.864;4.362;2022-12-07T04:44:24;28.73;;;19.80;;
14516;SDS011;7344;50.864;4.362;2022-12-07T04:46:51;25.13;;;19.77;;
14516;SDS011;7344;50.864;4.362;2022-12-07T04:49:17;27.53;;;20.73;;
14516;SDS011;7344;50.864;4.362;2022-12-07T04:51:43;30.90;;;21.17;;
14516;SDS011;7344;50.864;4.362;2022-12-07T04:54:09;28.43;;;20.23;;
14516;SDS011;7344;50.864;4.362;2022-12-07T04:56:35;26.23;;;19.63;;
14516;SDS011;7344;50.864;4.362;2022-12-07T04:59:01;23.27;;;18.83;;
14516;SDS011;7344;50.864;4.362;2022-12-07T05:01:27;28.60;;;19.70;;
14516;SDS011;7344;50.864;4.362;2022-12-07T05:03:53;27.87;;;19.07;;
14516;SDS011;7344;50.864;4.362;2022-12-07T05:06:19;24.93;;;18.63;;
14516;SDS011;7344;50.864;4.362;2022-12-07T05:08:45;25.90;;;18.63;;
14516;SDS011;7344;50.864;4.362;2022-12-07T05:11:11;26.57;;;18.63;;
14516;SDS011;7344;50.864;4.362;2022-12-07T05:14:00;29.07;;;18.47;;
14516;SDS011;7344;50.864;4.362;2022-12-07T05:16:30;23.00;;;18.10;;
14516;SDS011;7344;50.864;4.362;2022-12-07T05:18:56;25.97;;;18.80;;
14516;SDS011;7344;50.864;4.362;2022-12-07T05:21:22;28.10;;;18.90;;
14516;SDS011;7344;50.864;4.362;2022-12-07T05:23:48;24.33;;;18.33;;
14516;SDS011;7344;50.864;4.362;2022-12-07T05:26:14;28.83;;;19.27;;
14516;SDS011;7344;50.864;4.362;2022-12-07T05:28:40;25.60;;;19.67;;
14516;SDS011;7344;50.864;4.362;2022-12-07T05:31:05;28.43;;;20.07;;
14516;SDS011;7344;50.864;4.362;2022-12-07T05:33:31;26.27;;;18.77;;
14516;SDS011;7344;50.864;4.362;2022-12-07T05:35:57;25.67;;;18.53;;
14516;SDS011;7344;50.864;4.362;2022-12-07T05:38:23;25.47;;;18.80;;
14516;SDS011;7344;50.864;4.362;2022-12-07T05:40:50;26.00;;;18.93;;
14516;SDS011;7344;50.864;4.362;2022-12-07T05:43:15;25.30;;;18.60;;
14516;SDS011;7344;50.864;4.362;2022-12-07T05:45:41;22.33;;;17.50;;
14516;SDS011;7344;50.864;4.362;2022-12-07T05:48:07;23.90;;;17.63;;
14516;SDS011;7344;50.864;4.362;2022-12-07T05:50:32;26.77;;;18.23;;
14516;SDS011;7344;50.864;4.362;2022-12-07T05:52:58;22.37;;;17.13;;
14516;SDS011;7344;50.864;4.362;2022-12-07T05:55:24;18.80;;;16.30;;
14516;SDS011;7344;50.864;4.362;2022-12-07T05:57:50;22.40;;;16.10;;
14516;SDS011;7344;50.864;4.362;2022-12-07T06:00:33;23.00;;;16.77;;
14516;SDS011;7344;50.864;4.362;2022-12-07T06:02:59;21.07;;;16.30;;
14516;SDS011;7344;50.864;4.362;2022-12-07T06:05:25;24.23;;;15.77;;
14516;SDS011;7344;50.864;4.362;2022-12-07T06:07:50;19.20;;;15.33;;
14516;SDS011;7344;50.864;4.362;2022-12-07T06:10:16;22.83;;;15.33;;
14516;SDS011;7344;50.864;4.362;2022-12-07T06:12:42;20.03;;;14.33;;
14516;SDS011;7344;50.864;4.362;2022-12-07T06:15:08;20.13;;;14.90;;
14516;SDS011;7344;50.864;4.362;2022-12-07T06:17:35;20.17;;;14.43;;
14516;SDS011;7344;50.864;4.362;2022-12-07T06:20:01;22.57;;;14.70;;
14516;SDS011;7344;50.864;4.362;2022-12-07T06:22:28;19.73;;;14.37;;
14516;SDS011;7344;50.864;4.362;2022-12-07T06:24:53;25.13;;;14.43;;
14516;SDS011;7344;50.864;4.362;2022-12-07T06:27:19;23.57;;;15.40;;
14516;SDS011;7344;50.864;4.362;2022-12-07T06:29:45;24.30;;;14.83;;
14516;SDS011;7344;50.864;4.362;2022-12-07T06:32:10;22.27;;;13.60;;
14516;SDS011;7344;50.864;4.362;2022-12-07T06:34:37;19.17;;;13.63;;
14516;SDS011;7344;50.864;4.362;2022-12-07T06:37:03;17.00;;;13.20;;
14516;SDS011;7344;50.864;4.362;2022-12-07T06:39:28;18.70;;;13.70;;
14516;SDS011;7344;50.864;4.362;2022-12-07T06:41:54;18.80;;;14.33;;
14516;SDS011;7344;50.864;4.362;2022-12-07T06:44:21;18.77;;;13.50;;
14516;SDS011;7344;50.864;4.362;2022-12-07T06:46:47;14.30;;;12.10;;
14516;SDS011;7344;50.864;4.362;2022-12-07T06:49:13;18.97;;;12.60;;
14516;SDS011;7344;50.864;4.362;2022-12-07T06:51:39;18.27;;;13.40;;
14516;SDS011;7344;50.864;4.362;2022-12-07T06:54:08;15.67;;;13.03;;
14516;SDS011;7344;50.864;4.362;2022-12-07T06:56:34;17.40;;;13.40;;
14516;SDS011;7344;50.864;4.362;2022-12-07T06:59:00;20.20;;;12.37;;
14516;SDS011;7344;50.864;4.362;2022-12-07T07:01:26;17.67;;;13.47;;
14516;SDS011;7344;50.864;4.362;2022-12-07T07:03:52;16.43;;;13.10;;
14516;SDS011;7344;50.864;4.362;2022-12-07T07:06:17;18.57;;;12.73;;
14516;SDS011;7344;50.864;4.362;2022-12-07T07:08:43;18.23;;;13.60;;
14516;SDS011;7344;50.864;4.362;2022-12-07T07:11:09;18.53;;;13.23;;
14516;SDS011;7344;50.864;4.362;2022-12-07T07:13:35;17.40;;;14.23;;
14516;SDS011;7344;50.864;4.362;2022-12-07T07:16:01;17.20;;;13.30;;
14516;SDS011;7344;50.864;4.362;2022-12-07T07:18:27;18.83;;;12.43;;
14516;SDS011;7344;50.864;4.362;2022-12-07T07:20:53;17.67;;;12.47;;
14516;SDS011;7344;50.864;4.362;2022-12-07T07:23:19;18.40;;;12.93;;
14516;SDS011;7344;50.864;4.362;2022-12-07T07:25:45;14.47;;;12.07;;
14516;SDS011;7344;50.864;4.362;2022-12-07T07:28:11;18.03;;;13.50;;
14516;SDS011;7344;50.864;4.362;2022-12-07T07:30:37;19.53;;;13.10;;
14516;SDS011;7344;50.864;4.362;2022-12-07T07:33:03;20.57;;;13.90;;
14516;SDS011;7344;50.864;4.362;2022-12-07T07:35:29;20.33;;;13.20;;
14516;SDS011;7344;50.864;4.362;2022-12-07T07:37:56;20.00;;;15.10;;
14516;SDS011;7344;50.864;4.362;2022-12-07T07:40:22;19.07;;;14.57;;
14516;SDS011;7344;50.864;4.362;2022-12-07T07:42:49;20.60;;;14.83;;
14516;SDS011;7344;50.864;4.362;2022-12-07T07:45:16;19.00;;;16.23;;
14516;SDS011;7344;50.864;4.362;2022-12-07T07:47:42;21.10;;;14.63;;
14516;SDS011;7344;50.864;4.362;2022-12-07T07:50:08;25.17;;;15.07;;
14516;SDS011;7344;50.864;4.362;2022-12-07T07:52:34;22.80;;;15.47;;
14516;SDS011;7344;50.864;4.362;2022-12-07T07:54:59;26.33;;;15.00;;
14516;SDS011;7344;50.864;4.362;2022-12-07T07:57:25;19.83;;;13.80;;
14516;SDS011;7344;50.864;4.362;2022-12-07T07:59:50;17.70;;;13.53;;
14516;SDS011;7344;50.864;4.362;2022-12-07T08:02:17;25.60;;;14.67;;
14516;SDS011;7344;50.864;4.362;2022-12-07T08:04:44;17.50;;;13.40;;
14516;SDS011;7344;50.864;4.362;2022-12-07T08:07:10;19.17;;;13.43;;
14516;SDS011;7344;50.864;4.362;2022-12-07T08:09:36;19.83;;;14.30;;
14516;SDS011;7344;50.864;4.362;2022-12-07T08:12:02;24.37;;;15.77;;
14516;SDS011;7344;50.864;4.362;2022-12-07T08:14:28;18.90;;;13.93;;
14516;SDS011;7344;50.864;4.362;2022-12-07T08:16:55;18.27;;;14.50;;
14516;SDS011;7344;50.864;4.362;2022-12-07T08:19:21;16.63;;;12.67;;
14516;SDS011;7344;50.864;4.362;2022-12-07T08:21:46;22.83;;;13.30;;
14516;SDS011;7344;50.864;4.362;2022-12-07T08:24:12;15.83;;;12.33;;
14516;SDS011;7344;50.864;4.362;2022-12-07T08:26:38;20.87;;;15.37;;
14516;SDS011;7344;50.864;4.362;2022-12-07T08:29:04;18.10;;;11.80;;
14516;SDS011;7344;50.864;4.362;2022-12-07T08:31:29;13.13;;;10.97;;
14516;SDS011;7344;50.864;4.362;2022-12-07T08:33:55;12.77;;;9.93;;
14516;SDS011;7344;50.864;4.362;2022-12-07T08:36:21;11.30;;;10.10;;
14516;SDS011;7344;50.864;4.362;2022-12-07T08:38:47;14.43;;;10.27;;
14516;SDS011;7344;50.864;4.362;2022-12-07T08:41:14;13.50;;;9.60;;
14516;SDS011;7344;50.864;4.362;2022-12-07T08:43:39;13.90;;;9.27;;
14516;SDS011;7344;50.864;4.362;2022-12-07T08:48:52;10.23;;;8.63;;
14516;SDS011;7344;50.864;4.362;2022-12-07T08:51:21;14.40;;;8.90;;
14516;SDS011;7344;50.864;4.362;2022-12-07T08:53:48;11.70;;;8.27;;
14516;SDS011;7344;50.864;4.362;2022-12-07T08:56:16;12.53;;;8.63;;
14516;SDS011;7344;50.864;4.362;2022-12-07T08:58:41;12.57;;;9.00;;
14516;SDS011;7344;50.864;4.362;2022-12-07T09:01:08;17.23;;;9.63;;
14516;SDS011;7344;50.864;4.362;2022-12-07T09:03:34;14.23;;;9.17;;
14516;SDS011;7344;50.864;4.362;2022-12-07T09:06:00;14.27;;;9.07;;
14516;SDS011;7344;50.864;4.362;2022-12-07T09:08:26;11.70;;;9.20;;
14516;SDS011;7344;50.864;4.362;2022-12-07T09:10:58;12.47;;;9.40;;
14516;SDS011;7344;50.864;4.362;2022-12-07T09:13:24;14.97;;;9.47;;
14516;SDS011;7344;50.864;4.362;2022-12-07T09:15:49;13.63;;;9.20;;
14516;SDS011;7344;50.864;4.362;2022-12-07T09:18:16;15.93;;;10.53;;
14516;SDS011;7344;50.864;4.362;2022-12-07T09:20:42;13.33;;;10.70;;
14516;SDS011;7344;50.864;4.362;2022-12-07T09:23:07;15.93;;;11.27;;
14516;SDS011;7344;50.864;4.362;2022-12-07T09:25:34;16.73;;;10.87;;
14516;SDS011;7344;50.864;4.362;2022-12-07T09:28:00;15.17;;;11.53;;
14516;SDS011;7344;50.864;4.362;2022-12-07T09:30:26;18.83;;;11.90;;
14516;SDS011;7344;50.864;4.362;2022-12-07T09:32:55;16.70;;;10.93;;
14516;SDS011;7344;50.864;4.362;2022-12-07T09:35:22;19.00;;;10.67;;
14516;SDS011;7344;50.864;4.362;2022-12-07T09:37:48;16.03;;;10.03;;
14516;SDS011;7344;50.864;4.362;2022-12-07T09:40:13;12.73;;;9.73;;
14516;SDS011;7344;50.864;4.362;2022-12-07T09:42:42;17.00;;;11.37;;
14516;SDS011;7344;50.864;4.362;2022-12-07T09:45:15;16.27;;;10.33;;
14516;SDS011;7344;50.864;4.362;2022-12-07T09:47:44;16.53;;;11.60;;
14516;SDS011;7344;50.864;4.362;2022-12-07T09:50:14;15.97;;;10.00;;
14516;SDS011;7344;50.864;4.362;2022-12-07T09:52:41;11.53;;;9.33;;
14516;SDS011;7344;50.864;4.362;2022-12-07T09:55:14;17.17;;;10.77;;
14516;SDS011;7344;50.864;4.362;2022-12-07T09:57:41;14.27;;;9.47;;
14516;SDS011;7344;50.864;4.362;2022-12-07T10:00:12;13.67;;;9.40;;
14516;SDS011;7344;50.864;4.362;2022-12-07T10:02:44;14.83;;;9.80;;
14516;SDS011;7344;50.864;4.362;2022-12-07T10:05:25;14.50;;;9.33;;
14516;SDS011;7344;50.864;4.362;2022-12-07T10:07:55;16.17;;;10.23;;
14516;SDS011;7344;50.864;4.362;2022-12-07T10:10:30;13.80;;;9.07;;
14516;SDS011;7344;50.864;4.362;2022-12-07T10:13:01;16.97;;;9.87;;
14516;SDS011;7344;50.864;4.362;2022-12-07T10:15:51;17.20;;;9.43;;
14516;SDS011;7344;50.864;4.362;2022-12-07T10:18:40;10.90;;;8.77;;
14516;SDS011;7344;50.864;4.362;2022-12-07T10:23:43;14.57;;;9.27;;
14516;SDS011;7344;50.864;4.362;2022-12-07T10:31:41;10.77;;;8.77;;
14516;SDS011;7344;50.864;4.362;2022-12-07T10:34:23;11.47;;;8.60;;
14516;SDS011;7344;50.864;4.362;2022-12-07T10:36:51;10.23;;;8.33;;
14516;SDS011;7344;50.864;4.362;2022-12-07T10:39:19;11.60;;;8.17;;
14516;SDS011;7344;50.864;4.362;2022-12-07T10:44:27;13.23;;;8.00;;
14516;SDS011;7344;50.864;4.362;2022-12-07T10:50:10;12.13;;;7.43;;
14516;SDS011;7344;50.864;4.362;2022-12-07T11:17:56;13.87;;;7.53;;
14516;SDS011;7344;50.864;4.362;2022-12-07T11:23:03;7.77;;;5.43;;
14516;SDS011;7344;50.864;4.362;2022-12-07T11:25:36;11.13;;;5.37;;
14516;SDS011;7344;50.864;4.362;2022-12-07T11:30:34;7.90;;;5.17;;
14516;SDS011;7344;50.864;4.362;2022-12-07T11:38:35;6.33;;;5.10;;
14516;SDS011;7344;50.864;4.362;2022-12-07T11:41:20;8.10;;;5.00;;
14516;SDS011;7344;50.864;4.362;2022-12-07T11:46:27;7.73;;;4.90;;
14516;SDS011;7344;50.864;4.362;2022-12-07T11:49:12;8.40;;;4.80;;
14516;SDS011;7344;50.864;4.362;2022-12-07T11:51:58;7.00;;;4.40;;
14516;SDS011;7344;50.864;4.362;2022-12-07T11:54:29;8.67;;;4.57;;
14516;SDS011;7344;50.864;4.362;2022-12-07T11:57:01;6.70;;;4.07;;
14516;SDS011;7344;50.864;4.362;2022-12-07T11:59:31;5.53;;;4.00;;
14516;SDS011;7344;50.864;4.362;2022-12-07T12:04:46;5.90;;;3.77;;
14516;SDS011;7344;50.864;4.362;2022-12-07T12:07:24;5.63;;;3.70;;
14516;SDS011;7344;50.864;4.362;2022-12-07T12:21:18;4.73;;;3.80;;
14516;SDS011;7344;50.864;4.362;2022-12-07T12:23:54;6.90;;;3.97;;
14516;SDS011;7344;50.864;4.362;2022-12-07T12:26:22;10.27;;;8.23;;
14516;SDS011;7344;50.864;4.362;2022-12-07T12:33:48;6.27;;;4.33;;
14516;SDS011;7344;50.864;4.362;2022-12-07T12:49:39;6.17;;;3.20;;
14516;SDS011;7344;50.864;4.362;2022-12-07T12:57:34;7.40;;;3.10;;
14516;SDS011;7344;50.864;4.362;2022-12-07T13:00:02;6.07;;;3.23;;
14516;SDS011;7344;50.864;4.362;2022-12-07T13:02:47;7.43;;;2.90;;
14516;SDS011;7344;50.864;4.362;2022-12-07T13:05:28;3.47;;;2.57;;
14516;SDS011;7344;50.864;4.362;2022-12-07T13:07:59;8.10;;;2.60;;
14516;SDS011;7344;50.864;4.362;2022-12-07T13:12:58;6.47;;;3.30;;
14516;SDS011;7344;50.864;4.362;2022-12-07T13:15:48;6.63;;;4.53;;
14516;SDS011;7344;50.864;4.362;2022-12-07T13:20:57;5.77;;;3.40;;
14516;SDS011;7344;50.864;4.362;2022-12-07T13:23:25;6.33;;;3.43;;
14516;SDS011;7344;50.864;4.362;2022-12-07T13:28:35;5.67;;;3.27;;
14516;SDS011;7344;50.864;4.362;2022-12-07T13:33:48;5.63;;;3.40;;
14516;SDS011;7344;50.864;4.362;2022-12-07T13:36:18;9.37;;;3.10;;
14516;SDS011;7344;50.864;4.362;2022-12-07T13:38:57;4.87;;;2.53;;
14516;SDS011;7344;50.864;4.362;2022-12-07T13:41:25;5.43;;;2.80;;
14516;SDS011;7344;50.864;4.362;2022-12-07T13:44:11;6.60;;;2.90;;
14516;SDS011;7344;50.864;4.362;2022-12-07T13:49:30;2.23;;;2.07;;
14516;SDS011;7344;50.864;4.362;2022-12-07T13:54:58;4.57;;;2.67;;
14516;SDS011;7344;50.864;4.362;2022-12-07T13:57:31;7.87;;;3.50;;
14516;SDS011;7344;50.864;4.362;2022-12-07T14:00:03;4.17;;;3.00;;
14516;SDS011;7344;50.864;4.362;2022-12-07T14:02:32;4.93;;;2.77;;
14516;SDS011;7344;50.864;4.362;2022-12-07T14:07:48;3.90;;;3.50;;
14516;SDS011;7344;50.864;4.362;2022-12-07T14:12:55;5.83;;;3.10;;
14516;SDS011;7344;50.864;4.362;2022-12-07T14:15:22;4.43;;;3.40;;
14516;SDS011;7344;50.864;4.362;2022-12-07T14:17:51;4.97;;;3.00;;
14516;SDS011;7344;50.864;4.362;2022-12-07T14:20:28;6.20;;;3.50;;
14516;SDS011;7344;50.864;4.362;2022-12-07T14:22:58;3.83;;;3.00;;
14516;SDS011;7344;50.864;4.362;2022-12-07T14:25:24;5.87;;;2.93;;
14516;SDS011;7344;50.864;4.362;2022-12-07T14:27:53;7.63;;;3.10;;
14516;SDS011;7344;50.864;4.362;2022-12-07T14:30:24;4.57;;;3.23;;
14516;SDS011;7344;50.864;4.362;2022-12-07T14:32:55;4.40;;;2.83;;
14516;SDS011;7344;50.864;4.362;2022-12-07T14:35:23;6.67;;;3.57;;
14516;SDS011;7344;50.864;4.362;2022-12-07T14:37:49;7.93;;;3.60;;
14516;SDS011;7344;50.864;4.362;2022-12-07T14:40:17;4.67;;;2.50;;
14516;SDS011;7344;50.864;4.362;2022-12-07T14:42:47;2.57;;;2.37;;
14516;SDS011;7344;50.864;4.362;2022-12-07T14:45:21;4.97;;;2.30;;
14516;SDS011;7344;50.864;4.362;2022-12-07T14:47:47;3.20;;;2.07;;
14516;SDS011;7344;50.864;4.362;2022-12-07T14:50:15;4.60;;;2.23;;
14516;SDS011;7344;50.864;4.362;2022-12-07T14:52:43;4.00;;;2.10;;
14516;SDS011;7344;50.864;4.362;2022-12-07T14:55:13;3.40;;;2.10;;
14516;SDS011;7344;50.864;4.362;2022-12-07T14:57:43;5.33;;;2.03;;
14516;SDS011;7344;50.864;4.362;2022-12-07T15:00:12;4.83;;;2.00;;
14516;SDS011;7344;50.864;4.362;2022-12-07T15:02:39;2.73;;;1.77;;
14516;SDS011;7344;50.864;4.362;2022-12-07T15:05:05;4.73;;;2.40;;
14516;SDS011;7344;50.864;4.362;2022-12-07T15:07:31;2.97;;;2.37;;
14516;SDS011;7344;50.864;4.362;2022-12-07T15:09:56;5.30;;;2.57;;
14516;SDS011;7344;50.864;4.362;2022-12-07T15:12:22;3.90;;;2.67;;
14516;SDS011;7344;50.864;4.362;2022-12-07T15:14:49;7.57;;;5.37;;
14516;SDS011;7344;50.864;4.362;2022-12-07T15:17:15;4.87;;;3.53;;
14516;SDS011;7344;50.864;4.362;2022-12-07T15:19:41;3.63;;;2.87;;
14516;SDS011;7344;50.864;4.362;2022-12-07T15:22:07;4.57;;;3.20;;
14516;SDS011;7344;50.864;4.362;2022-12-07T15:24:35;3.03;;;2.33;;
14516;SDS011;7344;50.864;4.362;2022-12-07T15:27:01;2.63;;;2.30;;
14516;SDS011;7344;50.864;4.362;2022-12-07T15:29:27;4.13;;;2.80;;
14516;SDS011;7344;50.864;4.362;2022-12-07T15:31:53;6.33;;;3.37;;
14516;SDS011;7344;50.864;4.362;2022-12-07T15:34:19;4.43;;;2.33;;
14516;SDS011;7344;50.864;4.362;2022-12-07T15:36:44;2.43;;;2.23;;
14516;SDS011;7344;50.864;4.362;2022-12-07T15:39:10;2.50;;;2.30;;
14516;SDS011;7344;50.864;4.362;2022-12-07T15:41:36;5.20;;;3.00;;
14516;SDS011;7344;50.864;4.362;2022-12-07T15:44:02;3.63;;;2.97;;
14516;SDS011;7344;50.864;4.362;2022-12-07T15:46:46;6.33;;;2.70;;
14516;SDS011;7344;50.864;4.362;2022-12-07T15:49:13;8.73;;;2.80;;
14516;SDS011;7344;50.864;4.362;2022-12-07T15:51:41;7.00;;;3.80;;
14516;SDS011;7344;50.864;4.362;2022-12-07T15:56:47;6.63;;;6.00;;
14516;SDS011;7344;50.864;4.362;2022-12-07T15:59:13;9.90;;;6.47;;
14516;SDS011;7344;50.864;4.362;2022-12-07T16:01:38;7.27;;;5.30;;
14516;SDS011;7344;50.864;4.362;2022-12-07T16:04:04;11.97;;;9.03;;
14516;SDS011;7344;50.864;4.362;2022-12-07T16:06:30;12.77;;;9.60;;
14516;SDS011;7344;50.864;4.362;2022-12-07T16:08:56;8.17;;;5.20;;
14516;SDS011;7344;50.864;4.362;2022-12-07T16:11:22;6.50;;;5.27;;
14516;SDS011;7344;50.864;4.362;2022-12-07T16:13:48;58.03;;;44.17;;
14516;SDS011;7344;50.864;4.362;2022-12-07T16:16:14;16.27;;;9.80;;
14516;SDS011;7344;50.864;4.362;2022-12-07T16:18:42;12.83;;;6.80;;
14516;SDS011;7344;50.864;4.362;2022-12-07T16:21:08;8.73;;;4.90;;
14516;SDS011;7344;50.864;4.362;2022-12-07T16:23:33;8.53;;;5.50;;
14516;SDS011;7344;50.864;4.362;2022-12-07T16:26:03;10.73;;;7.70;;
14516;SDS011;7344;50.864;4.362;2022-12-07T16:28:30;7.63;;;5.17;;
14516;SDS011;7344;50.864;4.362;2022-12-07T16:30:59;10.50;;;7.00;;
14516;SDS011;7344;50.864;4.362;2022-12-07T16:33:30;7.20;;;5.33;;
14516;SDS011;7344;50.864;4.362;2022-12-07T16:35:56;8.80;;;5.53;;
14516;SDS011;7344;50.864;4.362;2022-12-07T16:38:23;9.40;;;6.30;;
14516;SDS011;7344;50.864;4.362;2022-12-07T16:40:48;9.97;;;7.23;;
14516;SDS011;7344;50.864;4.362;2022-12-07T16:43:14;9.97;;;5.70;;
14516;SDS011;7344;50.864;4.362;2022-12-07T16:45:41;10.57;;;6.80;;
14516;SDS011;7344;50.864;4.362;2022-12-07T16:48:06;7.30;;;5.40;;
14516;SDS011;7344;50.864;4.362;2022-12-07T16:50:32;8.30;;;5.63;;
14516;SDS011;7344;50.864;4.362;2022-12-07T16:52:58;9.30;;;6.43;;
14516;SDS011;7344;50.864;4.362;2022-12-07T16:55:23;9.50;;;6.53;;
14516;SDS011;7344;50.864;4.362;2022-12-07T16:57:49;9.47;;;7.90;;
14516;SDS011;7344;50.864;4.362;2022-12-07T17:00:15;6.70;;;5.63;;
14516;SDS011;7344;50.864;4.362;2022-12-07T17:02:41;9.90;;;5.80;;
14516;SDS011;7344;50.864;4.362;2022-12-07T17:05:07;9.77;;;5.57;;
14516;SDS011;7344;50.864;4.362;2022-12-07T17:07:33;15.70;;;9.73;;
14516;SDS011;7344;50.864;4.362;2022-12-07T17:09:59;14.87;;;11.23;;
14516;SDS011;7344;50.864;4.362;2022-12-07T17:12:24;8.03;;;6.00;;
14516;SDS011;7344;50.864;4.362;2022-12-07T17:14:50;10.90;;;5.73;;